Time;durP1;ratioP1;P1;durP2;ratioP2;P2;SDS_P1;SDS_P2;PMS_P1;PMS_P2;Temp;Humidity;BMP_temperature;BMP_pressure;BME280_temperature;BME280_humidity;BME280_pressure;Samples;Min_cycle;Max_cycle;Signal;HPM_P1;HPM_P2
2022/05/11 00:01:43;;;;;;;10.03;4.03;;;12.70;72.20;;;;;;5031908;28;20203;-73
2022/05/11 00:04:10;;;;;;;8.07;4.03;;;12.70;72.10;;;;;;5031839;28;20212;-74
2022/05/11 00:06:38;;;;;;;7.47;4.00;;;12.70;72.80;;;;;;5031502;28;20290;-73
2022/05/11 00:09:07;;;;;;;7.33;4.07;;;12.60;72.90;;;;;;5031907;28;20290;-74
2022/05/11 00:11:34;;;;;;;6.90;3.60;;;12.70;73.30;;;;;;5032126;28;20206;-72
2022/05/11 00:14:01;;;;;;;8.50;3.83;;;12.60;73.60;;;;;;5031782;28;20286;-70
2022/05/11 00:16:30;;;;;;;9.70;3.77;;;12.60;73.90;;;;;;5031917;28;20552;-71
2022/05/11 00:18:57;;;;;;;8.73;4.33;;;12.50;74.20;;;;;;5031973;28;20641;-70
2022/05/11 00:21:24;;;;;;;8.57;3.87;;;12.50;74.00;;;;;;5031880;28;20231;-71
2022/05/11 00:23:52;;;;;;;7.60;3.80;;;12.40;74.20;;;;;;5031973;28;20204;-71
2022/05/11 00:26:20;;;;;;;7.00;3.60;;;12.50;74.30;;;;;;5033024;28;20205;-72
2022/05/11 00:28:47;;;;;;;6.50;3.37;;;12.40;74.80;;;;;;5031858;28;20256;-72
2022/05/11 00:31:14;;;;;;;9.53;3.90;;;12.40;75.10;;;;;;5031691;28;20196;-73
2022/05/11 00:33:44;;;;;;;6.47;3.90;;;12.40;75.30;;;;;;5031682;28;20198;-72
2022/05/11 00:36:14;;;;;;;9.80;3.70;;;12.40;75.50;;;;;;5031551;28;20200;-72
2022/05/11 00:38:43;;;;;;;7.07;3.90;;;12.40;76.30;;;;;;5031833;28;20695;-75
2022/05/11 00:41:10;;;;;;;8.83;3.50;;;12.40;76.00;;;;;;5031640;28;20568;-72
2022/05/11 00:43:40;;;;;;;5.73;3.77;;;12.40;76.10;;;;;;5015511;28;20199;-72
2022/05/11 00:46:27;;;;;;;8.27;3.47;;;12.30;76.60;;;;;;5031612;28;20634;-72
2022/05/11 00:51:50;;;;;;;6.63;3.50;;;12.30;77.50;;;;;;5031546;28;20234;-72
2022/05/11 00:54:19;;;;;;;7.77;3.50;;;12.30;77.60;;;;;;5032622;28;20296;-73
2022/05/11 00:56:51;;;;;;;7.10;3.40;;;12.30;77.80;;;;;;5033080;28;20692;-71
2022/05/11 00:59:29;;;;;;;6.03;3.50;;;12.30;77.70;;;;;;5031610;28;20199;-71
2022/05/11 01:01:59;;;;;;;7.70;3.50;;;12.20;78.20;;;;;;5031589;28;20302;-72
2022/05/11 01:04:26;;;;;;;5.63;3.47;;;12.20;78.70;;;;;;5032711;28;20242;-71
2022/05/11 01:06:55;;;;;;;8.67;3.53;;;12.20;78.90;;;;;;5031385;28;20218;-71
2022/05/11 01:09:22;;;;;;;8.10;3.80;;;12.20;78.70;;;;;;5031411;28;20203;-71
2022/05/11 01:11:55;;;;;;;6.07;3.37;;;12.20;79.00;;;;;;5015074;28;20649;-71
2022/05/11 01:14:26;;;;;;;5.87;3.37;;;12.20;79.60;;;;;;5031238;28;20573;-71
2022/05/11 01:16:55;;;;;;;7.60;3.60;;;12.20;79.70;;;;;;5031407;28;20771;-71
2022/05/11 01:19:27;;;;;;;9.57;3.57;;;12.30;80.00;;;;;;5034906;28;20229;-71
2022/05/11 01:22:03;;;;;;;7.50;3.63;;;12.30;79.70;;;;;;5034808;28;20196;-71
2022/05/11 01:24:39;;;;;;;5.30;3.33;;;12.20;80.30;;;;;;5034661;28;20195;-72
2022/05/11 01:27:29;;;;;;;5.77;3.43;;;12.30;80.40;;;;;;5035925;28;20226;-70
2022/05/11 01:30:00;;;;;;;5.90;3.20;;;12.30;80.80;;;;;;5034835;28;20210;-71
2022/05/11 01:32:29;;;;;;;6.60;3.33;;;12.30;81.40;;;;;;5035557;28;20203;-70
2022/05/11 01:35:19;;;;;;;8.37;3.53;;;12.30;81.50;;;;;;5035899;28;20195;-71
2022/05/11 01:38:04;;;;;;;5.07;3.20;;;12.30;81.80;;;;;;5035850;28;20218;-70
2022/05/11 01:40:31;;;;;;;6.10;3.20;;;12.20;81.90;;;;;;5034313;28;20251;-71
2022/05/11 01:42:58;;;;;;;8.03;3.40;;;12.30;82.60;;;;;;5034500;28;20234;-71
2022/05/11 01:45:25;;;;;;;5.43;3.10;;;12.30;83.10;;;;;;5034366;28;20196;-71
2022/05/11 01:47:56;;;;;;;7.90;3.37;;;12.30;83.30;;;;;;5034389;28;20212;-71
2022/05/11 01:50:24;;;;;;;6.70;3.23;;;12.20;83.80;;;;;;5034499;28;20199;-71
2022/05/11 01:52:51;;;;;;;6.40;3.30;;;12.20;84.20;;;;;;5034293;28;20214;-71
2022/05/11 01:55:18;;;;;;;5.50;3.17;;;12.20;84.50;;;;;;5034054;28;20641;-72
2022/05/11 01:57:45;;;;;;;5.67;3.17;;;12.20;84.70;;;;;;5035247;28;20230;-70
2022/05/11 02:00:12;;;;;;;7.37;3.90;;;12.20;85.80;;;;;;5034305;28;20199;-71
2022/05/11 02:02:39;;;;;;;9.97;3.80;;;12.20;84.90;;;;;;5034169;28;20410;-70
2022/05/11 02:07:52;;;;;;;9.00;3.67;;;12.20;85.20;;;;;;5033735;28;20199;-70
2022/05/11 02:10:22;;;;;;;7.20;3.43;;;12.10;85.70;;;;;;5033816;28;20586;-70
2022/05/11 02:12:50;;;;;;;8.50;3.20;;;12.20;85.80;;;;;;5033958;28;20633;-72
2022/05/11 02:15:19;;;;;;;10.23;3.83;;;12.10;86.40;;;;;;5033755;28;20538;-70
2022/05/11 02:17:46;;;;;;;6.70;3.63;;;12.10;87.90;;;;;;5035189;28;20294;-71
2022/05/11 02:20:16;;;;;;;8.43;3.70;;;12.00;88.10;;;;;;5033837;28;20199;-70
2022/05/11 02:22:43;;;;;;;6.43;3.70;;;11.90;88.10;;;;;;5033793;28;20553;-71
2022/05/11 02:25:12;;;;;;;6.20;3.43;;;11.90;88.80;;;;;;5033723;28;20744;-71
2022/05/11 02:27:40;;;;;;;8.23;3.70;;;11.90;89.00;;;;;;5033495;28;20620;-70
2022/05/11 02:30:09;;;;;;;7.03;3.70;;;11.90;88.80;;;;;;5033380;28;20298;-70
2022/05/11 02:32:37;;;;;;;6.73;3.70;;;11.90;89.10;;;;;;5033552;28;20231;-71
2022/05/11 02:35:18;;;;;;;6.70;3.87;;;11.90;90.00;;;;;;5034755;28;20530;-70
2022/05/11 02:37:48;;;;;;;7.07;3.90;;;11.80;90.30;;;;;;5033680;28;20318;-71
2022/05/11 02:40:19;;;;;;;6.43;3.70;;;11.80;90.10;;;;;;5033565;28;20253;-71
2022/05/11 02:42:46;;;;;;;6.87;3.53;;;11.80;90.40;;;;;;5033271;28;20576;-71
2022/05/11 02:45:15;;;;;;;8.00;3.73;;;11.80;90.50;;;;;;5033350;28;20242;-70
2022/05/11 02:47:43;;;;;;;6.57;3.50;;;11.80;90.70;;;;;;5033224;28;20239;-71
2022/05/11 02:50:19;;;;;;;7.43;4.30;;;11.70;91.00;;;;;;5033242;28;20207;-71
2022/05/11 02:52:46;;;;;;;6.53;3.60;;;11.70;91.20;;;;;;5033343;28;20660;-71
2022/05/11 02:55:14;;;;;;;6.33;3.80;;;11.80;91.10;;;;;;5032912;28;20203;-71
2022/05/11 02:57:40;;;;;;;9.33;3.83;;;11.80;91.30;;;;;;5034352;28;20220;-71
2022/05/11 03:00:10;;;;;;;6.90;4.10;;;11.80;91.30;;;;;;5033019;28;20242;-71
2022/05/11 03:02:38;;;;;;;8.27;3.70;;;11.70;91.30;;;;;;5016560;28;20318;-71
2022/05/11 03:05:06;;;;;;;9.07;3.50;;;11.80;91.40;;;;;;5197181;23;20270;-70
2022/05/11 03:07:33;;;;;;;7.43;3.70;;;11.80;91.80;;;;;;4990296;28;20197;-73
2022/05/11 03:10:00;;;;;;;6.30;3.60;;;11.90;91.60;;;;;;4992915;28;20205;-70
2022/05/11 03:12:27;;;;;;;5.03;3.30;;;11.90;91.90;;;;;;4992577;28;20240;-70
2022/05/11 03:14:54;;;;;;;6.63;3.43;;;11.80;91.90;;;;;;4992630;28;20213;-70
2022/05/11 03:17:21;;;;;;;8.10;3.80;;;11.90;92.30;;;;;;4992349;28;20221;-71
2022/05/11 03:19:49;;;;;;;5.80;3.30;;;11.90;92.00;;;;;;4993570;28;20216;-72
2022/05/11 03:22:15;;;;;;;6.07;3.63;;;11.90;92.40;;;;;;4994008;28;20292;-72
2022/05/11 03:24:42;;;;;;;6.07;3.80;;;11.90;92.70;;;;;;4992498;28;20207;-73
2022/05/11 03:27:09;;;;;;;7.67;3.93;;;11.90;92.50;;;;;;4992728;28;20203;-71
2022/05/11 03:29:36;;;;;;;7.77;3.90;;;12.00;93.00;;;;;;4992293;28;20205;-71
2022/05/11 03:34:49;;;;;;;6.97;3.37;;;11.90;92.80;;;;;;4992177;28;20205;-74
2022/05/11 03:37:18;;;;;;;5.77;3.60;;;11.90;93.00;;;;;;4993374;28;20216;-74
2022/05/11 03:39:45;;;;;;;7.67;3.83;;;11.90;94.00;;;;;;4992080;28;20266;-73
2022/05/11 03:42:15;;;;;;;6.30;3.63;;;11.90;93.80;;;;;;4991441;28;20279;-73
2022/05/11 03:44:42;;;;;;;7.77;4.00;;;11.90;93.60;;;;;;4992230;28;20207;-73
2022/05/11 03:47:09;;;;;;;6.47;3.67;;;12.00;93.90;;;;;;4991508;28;20204;-71
2022/05/11 03:49:37;;;;;;;7.47;3.83;;;12.00;94.40;;;;;;4972649;28;20202;-73
2022/05/11 03:52:05;;;;;;;6.60;3.37;;;12.00;94.10;;;;;;4972818;28;20205;-71
2022/05/11 03:54:36;;;;;;;7.87;3.77;;;12.00;94.00;;;;;;4988677;28;20212;-72
2022/05/11 03:57:03;;;;;;;8.33;3.90;;;12.00;94.60;;;;;;4972567;28;20209;-73
2022/05/11 03:59:30;;;;;;;7.00;4.03;;;11.90;94.30;;;;;;4972541;28;20201;-73
2022/05/11 04:01:57;;;;;;;8.23;3.93;;;12.00;94.30;;;;;;4973965;28;20285;-72
2022/05/11 04:04:25;;;;;;;9.13;3.77;;;12.00;94.80;;;;;;4972263;28;20749;-74
2022/05/11 04:06:52;;;;;;;5.80;3.30;;;12.00;94.80;;;;;;4972341;28;20340;-76
2022/05/11 04:09:19;;;;;;;8.27;3.60;;;12.00;94.60;;;;;;4988546;28;20194;-73
2022/05/11 04:11:46;;;;;;;6.40;3.53;;;12.00;95.00;;;;;;4972668;28;20662;-73
2022/05/11 04:14:13;;;;;;;7.93;3.47;;;12.00;95.40;;;;;;4972485;28;20288;-72
2022/05/11 04:16:40;;;;;;;8.63;3.80;;;12.10;95.20;;;;;;4972288;28;20198;-73
2022/05/11 04:19:07;;;;;;;5.97;3.33;;;12.20;95.30;;;;;;4972356;28;20264;-73
2022/05/11 04:21:33;;;;;;;7.70;3.97;;;12.40;94.90;;;;;;4972748;28;20670;-73
2022/05/11 04:24:00;;;;;;;6.53;3.47;;;12.40;94.70;;;;;;4972302;28;20284;-72
2022/05/11 04:26:30;;;;;;;6.83;3.27;;;12.50;94.50;;;;;;4972417;28;20240;-73
2022/05/11 04:28:57;;;;;;;6.83;3.57;;;12.50;94.70;;;;;;4972471;28;20225;-74
2022/05/11 04:31:24;;;;;;;12.43;4.07;;;12.60;94.30;;;;;;4972320;28;20682;-73
2022/05/11 04:33:51;;;;;;;7.03;3.40;;;12.60;94.50;;;;;;4971925;28;20193;-75
2022/05/11 04:36:18;;;;;;;8.30;3.77;;;12.70;94.20;;;;;;4972270;28;20288;-74
2022/05/11 04:38:45;;;;;;;5.57;3.40;;;12.80;94.20;;;;;;4972148;28;20233;-73
2022/05/11 04:41:12;;;;;;;13.10;4.43;;;12.70;94.00;;;;;;4972382;28;20271;-73
2022/05/11 04:43:38;;;;;;;8.03;3.40;;;12.80;94.30;;;;;;4972035;28;20237;-75
2022/05/11 04:46:05;;;;;;;12.40;4.03;;;12.90;94.10;;;;;;4973418;28;20228;-75
2022/05/11 04:48:32;;;;;;;9.20;3.60;;;12.90;94.20;;;;;;4971969;28;20304;-75
2022/05/11 04:51:01;;;;;;;9.23;3.70;;;13.00;94.00;;;;;;4988402;28;20194;-74
2022/05/11 04:53:28;;;;;;;6.50;3.43;;;13.20;94.10;;;;;;4975928;28;20244;-75
2022/05/11 04:55:56;;;;;;;9.43;3.80;;;13.20;93.80;;;;;;4976966;28;20190;-76
2022/05/11 04:58:22;;;;;;;8.77;3.60;;;13.30;93.80;;;;;;4975870;28;20327;-73
2022/05/11 05:00:49;;;;;;;9.67;3.70;;;13.30;93.70;;;;;;4975720;28;20225;-73
2022/05/11 05:03:16;;;;;;;10.60;4.00;;;13.30;93.60;;;;;;4975702;28;20205;-74
2022/05/11 05:05:44;;;;;;;9.33;3.90;;;13.40;93.30;;;;;;4976170;28;20237;-74
2022/05/11 05:08:11;;;;;;;7.13;3.80;;;13.40;93.40;;;;;;4976913;28;20296;-74
2022/05/11 05:10:38;;;;;;;7.00;3.80;;;13.50;93.50;;;;;;4975705;28;20296;-75
2022/05/11 05:13:08;;;;;;;7.73;3.63;;;13.50;93.30;;;;;;4975360;28;20303;-74
2022/05/11 05:15:38;;;;;;;9.40;3.70;;;13.50;93.40;;;;;;4975360;28;20296;-74
2022/05/11 05:18:06;;;;;;;6.53;3.50;;;13.60;94.00;;;;;;4976323;28;20232;-76
2022/05/11 05:20:34;;;;;;;10.27;3.90;;;13.60;93.70;;;;;;4975683;28;20198;-75
2022/05/11 05:23:01;;;;;;;9.07;3.60;;;13.70;94.30;;;;;;4975244;28;20228;-74
2022/05/11 05:25:28;;;;;;;6.17;3.37;;;13.80;94.20;;;;;;4975367;28;20207;-75
2022/05/11 05:31:04;;;;;;;8.93;4.10;;;13.80;93.90;;;;;;4976375;28;20699;-76
2022/05/11 05:33:43;;;;;;;7.97;3.90;;;13.80;94.00;;;;;;4958247;28;20578;-74
2022/05/11 05:36:11;;;;;;;11.47;4.20;;;13.90;94.50;;;;;;4957928;28;20303;-72
2022/05/11 05:38:38;;;;;;;10.33;4.00;;;14.00;94.10;;;;;;4957774;28;20685;-75
2022/05/11 05:41:07;;;;;;;12.13;4.17;;;14.20;93.90;;;;;;4974108;28;20196;-73
2022/05/11 05:43:34;;;;;;;18.27;4.47;;;14.20;93.90;;;;;;4973901;28;20237;-75
2022/05/11 05:46:01;;;;;;;11.30;4.00;;;14.40;94.20;;;;;;4957754;28;20289;-74
2022/05/11 05:48:28;;;;;;;10.33;4.00;;;14.50;93.90;;;;;;4957721;28;20292;-72
2022/05/11 05:51:03;;;;;;;16.80;4.03;;;14.60;93.90;;;;;;4957623;28;20236;-73
2022/05/11 05:53:30;;;;;;;8.60;3.90;;;14.70;93.80;;;;;;4973846;28;20287;-73
2022/05/11 05:55:57;;;;;;;8.87;4.00;;;14.80;93.70;;;;;;4973550;28;20289;-74
2022/05/11 05:58:24;;;;;;;19.20;4.43;;;15.00;93.50;;;;;;4973829;28;20229;-75
2022/05/11 06:00:51;;;;;;;11.87;4.20;;;15.10;93.80;;;;;;4973594;28;20201;-74
2022/05/11 06:03:20;;;;;;;10.30;4.27;;;15.30;93.80;;;;;;4957078;28;20213;-72
2022/05/11 06:05:47;;;;;;;7.37;3.70;;;15.40;93.50;;;;;;4972927;28;20233;-75
2022/05/11 06:08:15;;;;;;;11.47;4.30;;;15.40;93.30;;;;;;4957113;28;20206;-75
2022/05/11 06:10:43;;;;;;;11.13;4.10;;;15.60;93.70;;;;;;4974415;28;20201;-71
2022/05/11 06:13:13;;;;;;;7.77;3.53;;;15.70;93.60;;;;;;4974151;28;20209;-72
2022/05/11 06:15:41;;;;;;;9.00;4.57;;;15.80;93.00;;;;;;4957785;28;20208;-75
2022/05/11 06:18:10;;;;;;;8.77;3.77;;;15.90;93.00;;;;;;4975339;28;20221;-72
2022/05/11 06:20:38;;;;;;;9.50;3.97;;;16.00;92.60;;;;;;4990479;28;20220;-70
2022/05/11 06:23:06;;;;;;;14.50;4.00;;;16.00;92.40;;;;;;4973847;28;20206;-74
2022/05/11 06:25:35;;;;;;;11.67;3.90;;;16.20;92.60;;;;;;4973857;28;20206;-69
2022/05/11 06:28:02;;;;;;;9.07;4.20;;;16.30;92.80;;;;;;4974243;28;20301;-69
2022/05/11 06:30:30;;;;;;;9.57;3.50;;;16.40;92.70;;;;;;4973805;28;20292;-69
2022/05/11 06:32:57;;;;;;;8.70;3.97;;;16.50;92.60;;;;;;4974231;28;20733;-72
2022/05/11 06:35:24;;;;;;;13.10;4.10;;;16.60;91.80;;;;;;4973421;28;20248;-70
2022/05/11 06:37:51;;;;;;;5.43;3.47;;;16.70;91.90;;;;;;4974110;28;20320;-72
2022/05/11 06:40:18;;;;;;;14.60;4.17;;;16.90;91.30;;;;;;4973731;28;20617;-68
2022/05/11 06:42:45;;;;;;;10.37;4.10;;;17.00;91.30;;;;;;4974891;28;20706;-69
2022/05/11 06:45:12;;;;;;;16.10;4.20;;;17.20;91.50;;;;;;4973473;28;20202;-72
2022/05/11 06:47:39;;;;;;;16.07;4.03;;;17.30;91.60;;;;;;4992866;28;20207;-70
2022/05/11 06:50:07;;;;;;;19.57;4.30;;;17.40;91.50;;;;;;4993145;28;20207;-69
2022/05/11 06:52:35;;;;;;;9.60;3.70;;;17.60;91.00;;;;;;4992647;28;20642;-70
2022/05/11 07:00:34;;;;;;;10.10;3.80;;;17.90;88.90;;;;;;4992487;28;20295;-71
2022/05/11 07:03:01;;;;;;;9.13;3.83;;;18.00;88.80;;;;;;4976400;28;20209;-70
2022/05/11 07:05:35;;;;;;;10.17;4.00;;;18.10;88.30;;;;;;4991745;28;20688;-72
2022/05/11 07:08:02;;;;;;;9.70;4.10;;;18.30;88.50;;;;;;4992487;28;20205;-73
2022/05/11 07:10:31;;;;;;;9.53;3.90;;;18.30;88.80;;;;;;4992711;28;20201;-72
2022/05/11 07:12:58;;;;;;;11.23;4.13;;;18.40;89.00;;;;;;4992457;28;20204;-71
2022/05/11 07:15:25;;;;;;;7.57;3.93;;;18.60;88.70;;;;;;4992673;28;20232;-69
2022/05/11 07:17:54;;;;;;;9.33;3.80;;;18.70;87.20;;;;;;4992223;28;20196;-72
2022/05/11 07:20:34;;;;;;;9.80;3.80;;;18.70;86.90;;;;;;4992716;28;20204;-72
2022/05/11 07:23:06;;;;;;;12.03;3.77;;;18.80;87.60;;;;;;4992191;28;20205;-71
2022/05/11 07:25:33;;;;;;;7.20;3.60;;;19.10;87.80;;;;;;4992268;28;20193;-72
2022/05/11 07:28:01;;;;;;;8.60;3.60;;;19.20;86.50;;;;;;4992670;28;20617;-72
2022/05/11 07:30:32;;;;;;;10.17;4.13;;;19.30;84.20;;;;;;4992052;28;20291;-73
2022/05/11 07:33:06;;;;;;;11.83;4.27;;;19.40;85.60;;;;;;4993557;28;20655;-72
2022/05/11 07:35:34;;;;;;;8.50;3.47;;;19.50;84.10;;;;;;4992058;28;20585;-73
2022/05/11 07:38:05;;;;;;;8.20;4.13;;;19.60;87.10;;;;;;4992250;28;20205;-76
2022/05/11 07:40:32;;;;;;;9.90;3.77;;;19.80;85.10;;;;;;4992336;28;20197;-73
2022/05/11 07:43:00;;;;;;;8.47;4.17;;;20.10;86.20;;;;;;4991727;28;20189;-72
2022/05/11 07:45:29;;;;;;;13.47;4.57;;;20.20;84.60;;;;;;4991915;28;20235;-73
2022/05/11 07:47:55;;;;;;;29.80;6.20;;;20.30;83.30;;;;;;4993202;28;20593;-73
2022/05/11 07:50:22;;;;;;;10.60;4.27;;;20.60;83.50;;;;;;4992223;28;20205;-72
2022/05/11 07:52:49;;;;;;;13.10;4.80;;;20.80;81.00;;;;;;4974871;28;20706;-72
2022/05/11 07:55:17;;;;;;;10.03;4.30;;;21.00;82.40;;;;;;4992872;28;20722;-70
2022/05/11 08:00:30;;;;;;;7.80;4.30;;;21.30;80.00;;;;;;4991729;28;20192;-72
2022/05/11 08:02:57;;;;;;;10.63;4.17;;;21.40;79.10;;;;;;4992054;28;20713;-74
2022/05/11 08:05:24;;;;;;;9.10;3.80;;;21.70;80.60;;;;;;4991340;28;20299;-73
2022/05/11 08:07:54;;;;;;;13.77;4.60;;;22.00;78.50;;;;;;4992321;28;20197;-73
2022/05/11 08:10:28;;;;;;;9.07;4.30;;;22.10;77.40;;;;;;4993259;28;20189;-73
2022/05/11 08:12:55;;;;;;;12.50;4.60;;;22.40;76.90;;;;;;4992036;28;20287;-71
2022/05/11 08:15:24;;;;;;;9.68;4.60;;;23.00;76.30;;;;;;4992266;28;20236;-74
2022/05/11 08:17:51;;;;;;;11.45;4.97;;;23.40;74.50;;;;;;4991782;28;20196;-71
2022/05/11 08:20:24;;;;;;;8.80;4.45;;;23.90;74.40;;;;;;4991836;28;20683;-75
2022/05/11 08:22:52;;;;;;;11.05;4.97;;;24.50;74.10;;;;;;4990970;28;20638;-74
2022/05/11 08:25:23;;;;;;;8.57;4.90;;;25.10;71.20;;;;;;4991749;28;20244;-73
2022/05/11 08:27:52;;;;;;;13.30;5.00;;;25.40;67.90;;;;;;4995080;28;20203;-75
2022/05/11 08:33:19;;;;;;;8.68;4.97;;;24.60;69.00;;;;;;4995558;28;20200;-79
2022/05/11 08:36:09;;;;;;;9.60;4.90;;;24.90;67.70;;;;;;4995193;28;20211;-68
2022/05/11 08:38:41;;;;;;;8.75;4.93;;;25.00;66.90;;;;;;4995407;28;20311;-72
2022/05/11 08:41:33;;;;;;;9.77;4.95;;;24.90;68.80;;;;;;4995339;28;20254;-72
2022/05/11 08:44:11;;;;;;;10.07;5.32;;;24.50;68.60;;;;;;4995276;28;20216;-74
2022/05/11 08:47:17;;;;;;;14.68;5.38;;;24.50;68.70;;;;;;4996614;28;20693;-73
2022/05/11 08:50:04;;;;;;;15.65;5.63;;;24.80;69.00;;;;;;4994142;28;20293;-74
2022/05/11 08:52:54;;;;;;;18.40;5.40;;;25.00;70.00;;;;;;4978482;28;20200;-73
2022/05/11 08:55:49;;;;;;;18.50;5.63;;;24.90;67.60;;;;;;4994982;28;20193;-74
2022/05/11 08:58:25;;;;;;;11.50;5.13;;;25.20;67.50;;;;;;4994801;28;20217;-72
2022/05/11 09:00:54;;;;;;;10.88;5.40;;;25.20;66.90;;;;;;4995158;28;20243;-75
2022/05/11 09:03:31;;;;;;;12.13;5.35;;;25.00;66.90;;;;;;4994959;28;20566;-70
2022/05/11 09:06:00;;;;;;;10.27;5.28;;;25.10;68.00;;;;;;4994618;28;20239;-71
2022/05/11 09:08:32;;;;;;;9.65;5.07;;;25.40;66.00;;;;;;4996234;28;20193;-73
2022/05/11 09:10:59;;;;;;;8.27;5.30;;;25.70;66.90;;;;;;4994893;28;20201;-74
2022/05/11 09:13:27;;;;;;;9.95;5.30;;;25.60;66.70;;;;;;4995157;28;20229;-74
2022/05/11 09:15:56;;;;;;;8.30;5.10;;;25.50;65.80;;;;;;4995041;28;20207;-74
2022/05/11 09:18:36;;;;;;;9.38;5.65;;;25.80;66.80;;;;;;4995077;28;20197;-74
2022/05/11 09:21:12;;;;;;;11.70;5.78;;;25.90;66.30;;;;;;4994572;28;20260;-74
2022/05/11 09:23:42;;;;;;;8.07;5.80;;;25.60;66.00;;;;;;4994668;28;20255;-74
2022/05/11 09:26:14;;;;;;;9.57;5.82;;;25.40;66.50;;;;;;4994645;28;20663;-75
2022/05/11 09:28:45;;;;;;;11.32;5.45;;;25.50;67.20;;;;;;4994552;28;20653;-74
2022/05/11 09:31:23;;;;;;;12.85;5.43;;;25.80;66.90;;;;;;4994899;28;20227;-74
2022/05/11 09:34:03;;;;;;;12.25;5.57;;;25.50;66.90;;;;;;4994724;28;20283;-75
2022/05/11 09:36:59;;;;;;;8.40;5.40;;;25.20;67.10;;;;;;4994335;28;20196;-74
2022/05/11 09:39:27;;;;;;;11.07;5.55;;;25.40;67.40;;;;;;4994394;28;20212;-73
2022/05/11 09:42:01;;;;;;;10.23;6.15;;;25.60;67.60;;;;;;4994810;28;20614;-73
2022/05/11 09:44:43;;;;;;;9.80;5.82;;;25.70;67.20;;;;;;4994243;28;20193;-73
2022/05/11 09:47:25;;;;;;;8.40;5.47;;;25.50;66.00;;;;;;4994133;28;20193;-73
2022/05/11 09:49:52;;;;;;;12.32;6.13;;;25.90;65.80;;;;;;4994607;28;20239;-74
2022/05/11 09:52:35;;;;;;;16.20;5.50;;;26.20;66.50;;;;;;4993217;28;20197;-72
2022/05/11 09:55:15;;;;;;;10.00;5.47;;;26.40;65.50;;;;;;4989793;28;20291;-69
2022/05/11 09:57:57;;;;;;;10.77;5.47;;;27.20;66.20;;;;;;4994186;28;20204;-70
2022/05/11 10:00:35;;;;;;;11.10;5.65;;;27.50;63.30;;;;;;4993410;28;20319;-70
2022/05/11 10:03:10;;;;;;;10.07;5.35;;;27.70;61.40;;;;;;4993702;28;20207;-70
2022/05/11 10:05:47;;;;;;;11.75;5.93;;;27.90;61.70;;;;;;4994565;28;20306;-76
2022/05/11 10:08:34;;;;;;;13.80;5.78;;;28.00;61.40;;;;;;4995001;28;20287;-76
2022/05/11 10:11:01;;;;;;;8.40;4.90;;;28.40;57.70;;;;;;4993682;28;20214;-79
2022/05/11 10:13:34;;;;;;;9.50;5.80;;;28.50;58.70;;;;;;4993584;28;20577;-70
2022/05/11 10:21:52;;;;;;;8.95;5.07;;;28.90;57.20;;;;;;4994506;28;20625;-81
2022/05/11 10:24:34;;;;;;;8.75;5.20;;;29.00;56.90;;;;;;4979946;28;20197;-74
2022/05/11 10:27:23;;;;;;;10.63;5.05;;;28.90;56.40;;;;;;4990186;28;20236;-75
2022/05/11 10:30:06;;;;;;;7.13;4.85;;;29.00;56.40;;;;;;4974013;28;20206;-76
2022/05/11 10:32:45;;;;;;;9.27;5.18;;;29.00;56.70;;;;;;4973945;28;20205;-74
2022/05/11 10:35:18;;;;;;;10.18;5.50;;;29.20;56.30;;;;;;4973546;28;20228;-75
2022/05/11 10:38:07;;;;;;;8.90;5.35;;;28.90;57.30;;;;;;4974859;28;20241;-74
2022/05/11 10:40:53;;;;;;;9.63;5.25;;;29.00;56.50;;;;;;4973835;28;20323;-75
2022/05/11 10:43:34;;;;;;;10.35;5.20;;;29.20;55.90;;;;;;4974002;28;20344;-75
2022/05/11 10:46:40;;;;;;;7.65;5.07;;;29.40;56.70;;;;;;4973677;28;20199;-75
2022/05/11 10:49:28;;;;;;;6.45;5.30;;;29.50;55.20;;;;;;4989660;28;20190;-76
2022/05/11 10:52:31;;;;;;;9.68;4.97;;;29.50;55.70;;;;;;4973058;28;20687;-74
2022/05/11 10:55:25;;;;;;;11.35;5.00;;;29.70;54.30;;;;;;4992265;28;20295;-76
2022/05/11 10:58:21;;;;;;;10.48;5.20;;;29.70;54.70;;;;;;4992806;28;20203;-76
2022/05/11 11:01:12;;;;;;;11.32;5.38;;;29.90;55.30;;;;;;4992593;28;20232;-74
2022/05/11 11:04:00;;;;;;;16.20;5.88;;;29.90;54.70;;;;;;4976584;28;20618;-73
2022/05/11 11:09:50;;;;;;;10.77;5.07;;;29.90;55.60;;;;;;4993648;28;20651;-75
2022/05/11 11:12:53;;;;;;;6.70;5.00;;;30.30;53.90;;;;;;4992359;28;20215;-73
2022/05/11 11:15:26;;;;;;;9.65;5.20;;;30.20;53.30;;;;;;4991988;28;20291;-75
2022/05/11 11:17:56;;;;;;;8.40;5.05;;;30.50;54.40;;;;;;4992333;28;20738;-73
2022/05/11 11:20:24;;;;;;;8.95;5.40;;;29.90;53.90;;;;;;4992245;28;20299;-76
2022/05/11 11:23:03;;;;;;;9.15;5.72;;;29.40;54.10;;;;;;4992268;28;20221;-77
2022/05/11 11:25:54;;;;;;;11.82;5.85;;;29.10;55.10;;;;;;4992101;28;20207;-75
2022/05/11 11:28:25;;;;;;;10.95;5.20;;;28.30;55.80;;;;;;4992447;28;20623;-82
2022/05/11 11:30:58;;;;;;;7.82;5.15;;;28.80;57.20;;;;;;4993786;28;20276;-77
2022/05/11 11:33:27;;;;;;;5.85;5.03;;;29.10;56.20;;;;;;4993267;28;20193;-83
2022/05/11 11:35:54;;;;;;;7.45;5.18;;;29.20;54.00;;;;;;4992148;28;20205;-75
2022/05/11 11:38:33;;;;;;;11.50;5.25;;;29.10;54.30;;;;;;4992345;28;20227;-75
2022/05/11 11:41:09;;;;;;;8.85;5.10;;;28.90;55.30;;;;;;4991938;28;20316;-73
2022/05/11 11:43:45;;;;;;;7.25;4.90;;;28.90;55.00;;;;;;4993287;28;20239;-72
2022/05/11 11:46:30;;;;;;;10.23;5.78;;;29.30;55.30;;;;;;4991838;28;20673;-73
2022/05/11 11:49:11;;;;;;;7.65;5.10;;;30.00;56.60;;;;;;4991900;28;20217;-73
2022/05/11 11:51:50;;;;;;;7.00;5.10;;;29.80;51.90;;;;;;4991765;28;20204;-70
2022/05/11 11:54:38;;;;;;;7.15;5.00;;;29.10;53.20;;;;;;4991698;28;20193;-70
2022/05/11 11:57:23;;;;;;;8.00;5.50;;;28.70;53.40;;;;;;4992983;28;20220;-70
2022/05/11 11:59:51;;;;;;;8.30;5.22;;;28.50;53.80;;;;;;4991700;28;20239;-75
2022/05/11 12:02:38;;;;;;;6.10;5.00;;;28.50;53.30;;;;;;4991429;28;20244;-76
2022/05/11 12:05:29;;;;;;;6.65;5.53;;;28.30;53.70;;;;;;4991630;28;20233;-73
2022/05/11 12:16:58;;;;;;;5.93;5.22;;;27.70;55.90;;;;;;4954786;28;20205;-74
2022/05/11 12:19:31;;;;;;;7.30;5.47;;;27.70;55.70;;;;;;4971607;28;20286;-70
2022/05/11 12:22:11;;;;;;;7.80;5.03;;;28.00;55.40;;;;;;4971063;28;20792;-71
2022/05/11 12:24:44;;;;;;;8.57;5.60;;;27.60;55.60;;;;;;4971116;28;20293;-70
2022/05/11 12:27:23;;;;;;;7.72;5.55;;;27.60;55.70;;;;;;4971447;28;20198;-69
2022/05/11 12:29:59;;;;;;;6.55;5.47;;;27.60;56.30;;;;;;4971314;28;20252;-72
2022/05/11 12:32:32;;;;;;;9.93;6.13;;;27.00;56.80;;;;;;4971447;28;20275;-72
2022/05/11 12:35:18;;;;;;;7.75;5.75;;;27.00;56.60;;;;;;4971254;28;20197;-74
2022/05/11 12:37:58;;;;;;;8.60;6.20;;;27.10;56.50;;;;;;4971256;28;20217;-73
2022/05/11 12:40:27;;;;;;;9.90;6.18;;;26.90;57.40;;;;;;4971267;28;20308;-72
2022/05/11 12:42:57;;;;;;;8.82;6.25;;;26.90;57.80;;;;;;4971611;28;20257;-71
2022/05/11 12:45:39;;;;;;;10.00;6.20;;;26.90;58.20;;;;;;4954743;28;20261;-73
2022/05/11 12:48:06;;;;;;;10.82;6.70;;;26.80;58.70;;;;;;4971433;28;20746;-71
2022/05/11 12:50:37;;;;;;;10.13;6.60;;;26.70;58.60;;;;;;4992011;28;20197;-71
2022/05/11 12:53:17;;;;;;;9.75;6.30;;;26.80;59.40;;;;;;4988331;28;20222;-71
2022/05/11 12:55:50;;;;;;;13.00;6.50;;;26.90;59.50;;;;;;4990114;28;20239;-72
2022/05/11 12:58:28;;;;;;;10.77;6.18;;;27.30;58.70;;;;;;4989614;28;20259;-75
2022/05/11 13:01:05;;;;;;;9.48;6.10;;;27.70;59.00;;;;;;4990796;28;20231;-72
2022/05/11 13:03:37;;;;;;;8.43;6.18;;;27.90;57.20;;;;;;4991224;28;20269;-73
2022/05/11 13:06:10;;;;;;;9.27;6.05;;;27.80;56.50;;;;;;4990338;28;20299;-71
2022/05/11 13:08:43;;;;;;;9.13;6.35;;;27.90;57.30;;;;;;4990533;28;20602;-74
2022/05/11 13:11:13;;;;;;;7.97;5.72;;;28.40;56.60;;;;;;4989877;28;20312;-73
2022/05/11 13:13:43;;;;;;;10.70;6.45;;;28.40;55.90;;;;;;4993578;28;20226;-73
2022/05/11 13:16:31;;;;;;;8.88;6.53;;;28.40;56.40;;;;;;4994820;28;20214;-79
2022/05/11 13:19:22;;;;;;;10.32;6.25;;;28.20;56.20;;;;;;4995120;28;20197;-76
2022/05/11 13:21:50;;;;;;;9.02;6.75;;;28.10;56.20;;;;;;4994876;28;20296;-71
2022/05/11 13:24:38;;;;;;;10.93;6.82;;;27.90;56.40;;;;;;4994404;28;20276;-73
2022/05/11 13:27:24;;;;;;;12.75;7.00;;;27.50;57.00;;;;;;4994630;28;20201;-73
2022/05/11 13:30:04;;;;;;;7.75;6.63;;;27.40;57.10;;;;;;4994483;28;20224;-78
2022/05/11 13:32:38;;;;;;;9.60;6.80;;;27.40;56.50;;;;;;4994411;28;20200;-72
2022/05/11 13:35:22;;;;;;;9.05;6.70;;;27.10;57.30;;;;;;4994204;28;20251;-74
2022/05/11 13:38:09;;;;;;;9.68;6.80;;;27.10;57.70;;;;;;4993946;28;20654;-74
2022/05/11 13:40:39;;;;;;;10.13;6.72;;;27.20;57.70;;;;;;4994427;28;20220;-74
2022/05/11 13:43:29;;;;;;;9.43;6.63;;;27.10;58.00;;;;;;4994494;28;20287;-73
2022/05/11 13:45:59;;;;;;;8.48;6.75;;;26.90;58.40;;;;;;4994396;28;20280;-73
2022/05/11 13:49:14;;;;;;;10.43;6.68;;;27.00;58.70;;;;;;4994964;28;20189;-76
2022/05/11 13:51:41;;;;;;;16.35;7.18;;;26.90;58.70;;;;;;4954643;28;20212;-74